Time;durP1;ratioP1;P1;durP2;ratioP2;P2;SDS_P1;SDS_P2;PMS_P1;PMS_P2;Temp;Humidity;BMP_temperature;BMP_pressure;BME280_temperature;BME280_humidity;BME280_pressure;Samples;Min_cycle;Max_cycle;Signal;HPM_P1;HPM_P2
2022/06/08 00:01:37;;;;;;;;;3.00;3.00;;;;;19.03;57.50;100220.00;5096854;27;45438;-73
2022/06/08 00:04:05;;;;;;;;;5.25;3.50;;;;;19.04;57.55;100221.69;5096552;27;45384;-74
2022/06/08 00:06:31;;;;;;;;;3.00;3.00;;;;;19.08;57.74;100220.47;5096829;27;45420;-74
2022/06/08 00:08:56;;;;;;;;;14.50;12.00;;;;;19.06;57.38;100222.41;5096254;27;45656;-74
2022/06/08 00:11:22;;;;;;;;;4.25;3.50;;;;;19.08;57.48;100215.13;5096281;27;45229;-74
2022/06/08 00:13:47;;;;;;;;;5.00;4.00;;;;;19.06;57.64;100206.41;5095465;27;45289;-74
2022/06/08 00:16:14;;;;;;;;;3.25;2.25;;;;;19.05;57.88;100204.72;5096660;27;45572;-72
2022/06/08 00:18:40;;;;;;;;;3.50;3.50;;;;;19.02;57.71;100196.16;5096440;27;45397;-73
2022/06/08 00:21:07;;;;;;;;;2.25;2.25;;;;;19.03;57.99;100201.34;5096216;27;45185;-71
2022/06/08 00:23:33;;;;;;;;;3.00;3.00;;;;;19.04;57.99;100204.88;5096285;27;45421;-71
2022/06/08 00:25:58;;;;;;;;;3.00;3.00;;;;;18.99;57.60;100194.56;5096407;27;45620;-72
2022/06/08 00:28:24;;;;;;;;;5.50;3.25;;;;;19.02;58.18;100196.97;5096346;27;46359;-73
2022/06/08 00:30:49;;;;;;;;;3.00;3.00;;;;;19.03;58.34;100195.19;5096230;27;45381;-73
2022/06/08 00:33:14;;;;;;;;;3.50;2.25;;;;;18.98;57.71;100187.53;5096486;27;45352;-74
2022/06/08 00:35:40;;;;;;;;;5.75;4.00;;;;;18.99;57.84;100189.25;5096396;27;45525;-72
2022/06/08 00:38:06;;;;;;;;;5.00;5.00;;;;;18.96;57.45;100189.47;5096095;27;47626;-72
2022/06/08 00:40:58;;;;;;;;;6.50;3.00;;;;;18.97;57.63;100192.03;5094468;27;45603;-72
2022/06/08 00:43:24;;;;;;;;;4.50;3.25;;;;;18.92;57.83;100175.56;5076939;27;45381;-71
2022/06/08 00:45:49;;;;;;;;;5.25;2.25;;;;;18.90;58.06;100179.31;5096173;27;45437;-72
2022/06/08 00:48:17;;;;;;;;;3.75;3.75;;;;;18.87;57.95;100174.22;5095838;27;46639;-71
2022/06/08 00:50:49;;;;;;;;;4.25;4.25;;;;;18.84;58.27;100167.34;5095614;27;45418;-72
2022/06/08 00:53:19;;;;;;;;;2.50;2.50;;;;;18.79;58.28;100162.38;5096044;27;45344;-72
2022/06/08 00:55:45;;;;;;;;;5.00;3.00;;;;;18.77;58.32;100160.81;5095802;27;45306;-72
2022/06/08 00:58:23;;;;;;;;;6.50;4.00;;;;;18.77;58.69;100158.16;5095374;27;46295;-71
2022/06/08 01:00:50;;;;;;;;;3.00;3.00;;;;;18.74;58.94;100164.56;5095825;27;45312;-72
2022/06/08 01:03:16;;;;;;;;;5.50;3.00;;;;;18.71;58.59;100164.00;5096217;27;45512;-72
2022/06/08 01:05:46;;;;;;;;;2.75;2.75;;;;;18.69;58.58;100154.31;5095838;27;45684;-74
2022/06/08 01:08:39;;;;;;;;;3.00;3.00;;;;;18.68;58.84;100151.75;5094313;27;46220;-72
2022/06/08 01:11:10;;;;;;;;;3.25;3.25;;;;;18.63;59.30;100153.94;5095616;27;45344;-73
2022/06/08 01:13:38;;;;;;;;;4.25;2.75;;;;;18.64;59.44;100158.31;5095521;27;45815;-71
2022/06/08 01:16:06;;;;;;;;;3.00;3.00;;;;;18.61;59.62;100147.91;5095669;27;45489;-72
2022/06/08 01:18:33;;;;;;;;;3.75;3.75;;;;;18.61;60.05;100150.56;5094961;27;45539;-72
2022/06/08 01:21:21;;;;;;;;;3.75;3.75;;;;;18.60;60.45;100146.19;5095341;27;45357;-73
2022/06/08 01:24:00;;;;;;;;;4.25;4.25;;;;;18.61;60.35;100143.44;5095843;27;45800;-73
2022/06/08 01:26:30;;;;;;;;;4.25;3.75;;;;;18.62;60.46;100154.91;5095690;27;45221;-72
2022/06/08 01:29:32;;;;;;;;;3.25;2.00;;;;;18.58;60.24;100158.78;5094883;27;45530;-72
2022/06/08 01:32:28;;;;;;;;;4.50;2.50;;;;;18.54;60.52;100148.41;5095210;27;45348;-72
2022/06/08 01:35:02;;;;;;;;;2.50;2.00;;;;;18.53;60.48;100133.38;5095466;27;45333;-72
2022/06/08 01:37:37;;;;;;;;;7.50;4.25;;;;;18.47;60.60;100128.56;5095448;27;45331;-74
2022/06/08 01:40:39;;;;;;;;;4.00;3.75;;;;;18.49;60.46;100147.91;5095149;27;45496;-71
2022/06/08 01:43:35;;;;;;;;;3.25;3.25;;;;;18.47;60.71;100138.34;5095192;27;45396;-73
2022/06/08 01:46:29;;;;;;;;;5.50;4.00;;;;;18.43;60.79;100135.09;5095936;27;45321;-72
2022/06/08 01:48:55;;;;;;;;;3.25;3.00;;;;;18.36;60.65;100140.06;5099064;27;45287;-73
2022/06/08 01:51:35;;;;;;;;;2.25;2.25;;;;;18.34;61.12;100147.31;5098845;27;46288;-72
2022/06/08 01:54:21;;;;;;;;;4.00;2.25;;;;;18.31;61.33;100160.06;5097145;27;45581;-73
2022/06/08 01:57:01;;;;;;;;;6.50;4.00;;;;;18.27;61.66;100162.09;5098573;27;45361;-73
2022/06/08 02:00:00;;;;;;;;;3.00;2.00;;;;;18.23;61.54;100148.19;5098652;27;45434;-72
2022/06/08 02:02:41;;;;;;;;;3.50;3.50;;;;;18.20;62.27;100148.44;5098218;27;46089;-74
2022/06/08 02:05:27;;;;;;;;;9.25;9.25;;;;;18.15;62.09;100141.78;5098186;27;45406;-72
2022/06/08 02:07:57;;;;;;;;;5.50;3.75;;;;;18.12;62.58;100147.34;5097227;27;45369;-73
2022/06/08 02:10:30;;;;;;;;;5.00;3.50;;;;;18.06;63.06;100138.03;5098827;27;45310;-73
2022/06/08 02:13:07;;;;;;;;;5.00;3.00;;;;;18.06;63.25;100125.56;5096695;27;47082;-74
2022/06/08 02:15:39;;;;;;;;;4.50;3.00;;;;;18.04;63.52;100116.03;5098148;27;45167;-72
2022/06/08 02:18:11;;;;;;;;;3.25;3.00;;;;;18.01;63.60;100114.44;5098239;27;45326;-72
2022/06/08 02:20:44;;;;;;;;;4.75;3.00;;;;;18.01;64.09;100118.91;5098218;27;45260;-73
2022/06/08 02:23:18;;;;;;;;;2.50;2.50;;;;;17.92;63.82;100118.63;5096641;27;47354;-72
2022/06/08 02:25:50;;;;;;;;;4.00;4.00;;;;;17.90;63.76;100122.41;5097924;27;45374;-73
2022/06/08 02:28:22;;;;;;;;;4.50;3.50;;;;;17.84;63.87;100121.06;5098075;27;45406;-73
2022/06/08 02:31:14;;;;;;;;;4.00;2.25;;;;;17.79;64.68;100133.88;5098311;27;45499;-73
2022/06/08 02:36:50;;;;;;;;;5.00;3.00;;;;;17.48;65.61;100113.16;5097627;27;45375;-73
2022/06/08 02:39:29;;;;;;;;;3.00;3.00;;;;;17.51;66.11;100122.72;5131008;27;45446;-74
2022/06/08 02:42:03;;;;;;;;;4.50;4.00;;;;;17.38;66.21;100118.34;5096831;27;45360;-72
2022/06/08 02:44:31;;;;;;;;;4.50;4.00;;;;;17.31;67.11;100113.59;5097727;27;45576;-74
2022/06/08 02:47:30;;;;;;;;;7.00;4.00;;;;;17.27;67.46;100114.78;5097561;27;45364;-72
2022/06/08 02:50:06;;;;;;;;;4.25;3.75;;;;;17.18;67.81;100119.00;5074566;27;45332;-72
2022/06/08 02:52:32;;;;;;;;;3.00;3.00;;;;;17.12;67.60;100115.00;5097689;27;45644;-73
2022/06/08 02:54:58;;;;;;;;;3.75;3.75;;;;;17.10;68.54;100113.44;5096987;27;46246;-72
2022/06/08 02:57:27;;;;;;;;;2.50;2.50;;;;;17.09;68.59;100107.25;5097419;27;45341;-72
2022/06/08 03:00:05;;;;;;;;;3.00;3.00;;;;;17.00;68.32;100099.97;5097707;27;45270;-71
2022/06/08 03:03:00;;;;;;;;;6.75;3.25;;;;;16.98;68.85;100099.25;5097601;27;45464;-72
2022/06/08 03:05:33;;;;;;;;;6.00;3.00;;;;;16.86;69.33;100080.56;5093170;27;46285;-71
2022/06/08 03:08:06;;;;;;;;;4.00;3.00;;;;;16.97;69.31;100093.09;5097205;27;45336;-72
2022/06/08 03:10:34;;;;;;;;;3.00;3.00;;;;;16.94;68.94;100087.94;5097286;27;45399;-72
2022/06/08 03:13:06;;;;;;;;;5.25;4.00;;;;;16.89;69.13;100088.31;5095830;27;45459;-72
2022/06/08 03:15:33;;;;;;;;;5.75;5.00;;;;;16.84;69.85;100085.16;5096768;27;45507;-71
2022/06/08 03:17:59;;;;;;;;;3.00;3.00;;;;;16.75;70.10;100089.31;5096802;27;45622;-72
2022/06/08 03:20:25;;;;;;;;;8.00;5.75;;;;;16.62;71.08;100073.47;5097153;27;45438;-72
2022/06/08 03:22:51;;;;;;;;;5.75;5.00;;;;;16.43;71.73;100062.47;5097043;27;45410;-71
2022/06/08 03:25:17;;;;;;;;;5.25;5.00;;;;;16.34;74.53;100053.41;5096612;27;45281;-71
2022/06/08 03:27:45;;;;;;;;;3.00;3.00;;;;;16.27;74.60;100036.25;5096835;27;45324;-72
2022/06/08 03:30:13;;;;;;;;;5.00;5.00;;;;;16.25;74.31;100036.34;5096796;27;45289;-73
2022/06/08 03:32:38;;;;;;;;;8.00;3.50;;;;;16.21;73.91;100024.25;5095641;27;45511;-72
2022/06/08 03:35:04;;;;;;;;;5.75;3.00;;;;;16.11;74.40;100012.63;5096431;27;46377;-72
2022/06/08 03:37:30;;;;;;;;;4.25;4.25;;;;;16.18;74.29;100027.13;5095353;27;45346;-73
2022/06/08 03:39:55;;;;;;;;;4.00;3.00;;;;;16.17;74.30;100031.59;5096946;27;45351;-73
2022/06/08 03:42:21;;;;;;;;;4.50;4.50;;;;;16.18;74.09;100028.00;5097096;27;45385;-72
2022/06/08 03:44:46;;;;;;;;;6.50;4.00;;;;;16.15;74.30;100022.91;5095027;27;48075;-71
2022/06/08 03:47:17;;;;;;;;;3.50;3.50;;;;;16.20;74.75;100031.38;5096452;27;45372;-72
2022/06/08 03:49:42;;;;;;;;;5.75;2.75;;;;;16.20;75.02;100022.56;5096637;27;45291;-72
2022/06/08 03:52:14;;;;;;;;;3.50;3.50;;;;;16.18;75.69;100025.34;5096599;27;45285;-71
2022/06/08 03:54:46;;;;;;;;;2.25;2.25;;;;;16.23;75.99;100029.47;5096290;27;46563;-72
2022/06/08 03:57:14;;;;;;;;;1.75;1.25;;;;;16.19;76.21;100028.81;5096409;27;45297;-72
2022/06/08 03:59:41;;;;;;;;;4.00;2.50;;;;;16.17;76.03;100026.28;5096107;27;45380;-73
2022/06/08 04:02:08;;;;;;;;;4.25;4.25;;;;;16.19;76.43;100032.34;5096603;27;45253;-72
2022/06/08 04:04:33;;;;;;;;;6.00;3.50;;;;;16.12;76.29;100015.16;5096106;27;46432;-73
2022/06/08 04:06:59;;;;;;;;;7.00;4.00;;;;;16.20;76.82;100020.75;5096377;27;45262;-73
2022/06/08 04:09:24;;;;;;;;;8.00;6.25;;;;;16.25;77.20;100024.88;5094130;27;45278;-74
2022/06/08 04:11:50;;;;;;;;;5.00;3.25;;;;;16.28;77.41;100028.16;5096652;27;45490;-73
2022/06/08 04:14:15;;;;;;;;;7.00;6.00;;;;;16.28;77.74;100022.84;5096381;27;45955;-73
2022/06/08 04:16:41;;;;;;;;;6.00;4.25;;;;;16.31;77.63;100006.69;5096045;27;45287;-73
2022/06/08 04:19:06;;;;;;;;;5.25;5.00;;;;;16.31;77.40;100005.88;5095865;27;45504;-73
2022/06/08 04:21:31;;;;;;;;;6.75;5.25;;;;;16.36;77.16;100011.69;5096356;27;45404;-73
2022/06/08 04:23:58;;;;;;;;;7.50;6.00;;;;;16.37;76.99;100008.06;5096032;27;46164;-73
2022/06/08 04:26:23;;;;;;;;;6.25;4.00;;;;;16.37;77.78;99994.78;5094615;27;45239;-74
2022/06/08 04:28:48;;;;;;;;;10.00;6.00;;;;;16.41;77.44;100001.56;5095920;27;45403;-72
2022/06/08 04:31:14;;;;;;;;;4.00;4.00;;;;;16.39;77.75;99990.22;5096145;27;45262;-72
2022/06/08 04:33:40;;;;;;;;;6.50;5.00;;;;;16.39;79.04;99992.88;5094741;27;45212;-74
2022/06/08 04:36:06;;;;;;;;;6.25;4.00;;;;;16.39;78.36;99986.69;5095989;27;45377;-75
2022/06/08 04:38:33;;;;;;;;;5.75;5.75;;;;;16.34;78.90;99981.75;5094580;27;45377;-73
2022/06/08 04:40:59;;;;;;;;;5.75;5.25;;;;;16.36;79.77;99977.16;5096455;27;45440;-72
2022/06/08 04:43:25;;;;;;;;;10.50;7.75;;;;;16.35;79.76;99964.88;5095459;27;45471;-74
2022/06/08 04:45:50;;;;;;;;;7.50;6.00;;;;;16.38;79.32;99969.06;5095389;27;45264;-72
2022/06/08 04:48:16;;;;;;;;;6.00;5.75;;;;;16.32;79.29;99959.78;5095697;27;45325;-73
2022/06/08 04:50:41;;;;;;;;;6.75;6.00;;;;;16.36;78.84;99967.38;5095820;27;45447;-73
2022/06/08 04:53:08;;;;;;;;;5.00;5.00;;;;;16.39;80.01;99968.97;5095244;27;46173;-73
2022/06/08 04:55:33;;;;;;;;;8.00;6.25;;;;;16.36;78.98;99958.59;5095496;27;45333;-73
2022/06/08 04:58:01;;;;;;;;;7.25;5.75;;;;;16.40;79.25;99961.84;5094170;27;45444;-73
2022/06/08 05:00:26;;;;;;;;;9.25;7.25;;;;;16.38;79.10;99956.66;5095724;27;45218;-74
2022/06/08 05:02:54;;;;;;;;;8.75;5.75;;;;;16.40;79.70;99964.50;5094525;27;46278;-73
2022/06/08 05:05:30;;;;;;;;;5.00;5.00;;;;;16.40;79.80;99957.41;5094271;27;45349;-72
2022/06/08 05:07:56;;;;;;;;;8.75;4.75;;;;;16.36;80.21;99956.78;5095588;27;45306;-72
2022/06/08 05:10:25;;;;;;;;;6.75;6.75;;;;;16.37;79.65;99947.00;5095368;27;45276;-72
2022/06/08 05:12:50;;;;;;;;;6.00;6.00;;;;;16.39;80.06;99952.19;5095296;27;45581;-72
2022/06/08 05:15:28;;;;;;;;;6.00;6.00;;;;;16.37;79.67;99944.38;5093997;27;46282;-72
2022/06/08 05:17:54;;;;;;;;;5.00;5.00;;;;;16.33;79.70;99949.03;5095680;27;45339;-72
2022/06/08 05:20:20;;;;;;;;;6.75;6.00;;;;;16.28;79.38;99940.56;5095587;27;45425;-73
2022/06/08 05:22:46;;;;;;;;;6.50;5.75;;;;;16.26;80.19;99942.50;5097245;27;48018;-72
2022/06/08 05:25:15;;;;;;;;;6.75;6.75;;;;;16.28;80.64;99945.06;5098773;27;45313;-72
2022/06/08 05:27:40;;;;;;;;;6.00;6.00;;;;;16.28;80.10;99939.75;5097557;27;45202;-72
2022/06/08 05:30:09;;;;;;;;;5.75;5.00;;;;;16.29;80.21;99938.78;5097442;27;45503;-71
2022/06/08 05:32:35;;;;;;;;;8.00;6.00;;;;;16.31;80.08;99939.50;5098505;27;46305;-73
2022/06/08 05:35:00;;;;;;;;;6.50;5.50;;;;;16.29;79.94;99930.81;5099016;27;45400;-72
2022/06/08 05:37:26;;;;;;;;;10.00;8.25;;;;;16.29;80.31;99931.66;5096954;27;45380;-73
2022/06/08 05:39:51;;;;;;;;;5.00;5.00;;;;;16.37;80.40;99939.06;5098575;27;45362;-73
2022/06/08 05:42:16;;;;;;;;;10.25;6.00;;;;;16.36;80.37;99927.56;5098570;27;45544;-71
2022/06/08 05:44:42;;;;;;;;;7.00;7.00;;;;;16.40;80.09;99933.50;5098291;27;45232;-73
2022/06/08 05:47:07;;;;;;;;;7.25;7.25;;;;;16.44;80.48;99932.31;5098602;27;45233;-72
2022/06/08 05:49:34;;;;;;;;;8.50;7.00;;;;;16.45;80.35;99936.66;5097665;27;45207;-72
2022/06/08 05:52:01;;;;;;;;;4.00;4.00;;;;;16.43;79.93;99935.94;5098080;27;45195;-72
2022/06/08 05:54:28;;;;;;;;;6.50;6.50;;;;;16.43;79.35;99935.06;5098016;27;45448;-72
2022/06/08 05:56:53;;;;;;;;;5.25;4.00;;;;;16.43;79.96;99935.94;5098027;27;45338;-72
2022/06/08 05:59:18;;;;;;;;;8.00;6.25;;;;;16.43;79.62;99933.28;5098347;27;45444;-72
2022/06/08 06:01:44;;;;;;;;;6.00;6.00;;;;;16.44;79.79;99934.97;5098394;27;46279;-74
2022/06/08 06:04:09;;;;;;;;;6.50;5.75;;;;;16.46;80.06;99934.88;5096972;27;45384;-73
2022/06/08 06:06:35;;;;;;;;;4.75;4.50;;;;;16.47;79.37;99937.41;5098560;27;45488;-73
2022/06/08 06:09:03;;;;;;;;;4.25;4.25;;;;;16.46;79.82;99942.84;5097671;27;45549;-72
2022/06/08 06:11:28;;;;;;;;;6.00;6.00;;;;;16.40;84.23;99941.47;5097362;27;46874;-72
2022/06/08 06:13:57;;;;;;;;;12.50;11.00;;;;;16.33;83.30;99943.72;5097778;27;45372;-72
2022/06/08 06:16:24;;;;;;;;;7.00;5.75;;;;;16.31;82.87;99936.84;5097899;27;45491;-73
2022/06/08 06:18:50;;;;;;;;;8.00;7.00;;;;;16.36;83.18;99940.00;5097979;27;45494;-71
2022/06/08 06:21:20;;;;;;;;;6.00;3.00;;;;;16.33;82.64;99935.78;5097590;27;45850;-73
2022/06/08 06:23:45;;;;;;;;;4.25;3.50;;;;;16.30;81.21;99948.44;5098028;27;45379;-72
2022/06/08 06:26:11;;;;;;;;;7.25;5.00;;;;;16.27;82.01;99940.69;5097717;27;45264;-71
2022/06/08 06:28:36;;;;;;;;;5.25;4.75;;;;;16.26;81.55;99942.50;5098174;27;45251;-72
2022/06/08 06:31:02;;;;;;;;;7.00;5.25;;;;;16.26;81.75;99936.34;5097798;27;45576;-72
2022/06/08 06:33:27;;;;;;;;;11.50;9.25;;;;;16.28;82.32;99942.41;5097264;27;45485;-72
2022/06/08 06:35:52;;;;;;;;;5.50;4.00;;;;;16.27;82.01;99938.06;5097642;27;45531;-72
2022/06/08 06:38:18;;;;;;;;;5.00;5.00;;;;;16.29;81.46;99938.78;5097685;27;45562;-73
2022/06/08 06:40:43;;;;;;;;;5.00;5.00;;;;;16.17;82.22;99922.81;5097336;27;46320;-73
2022/06/08 06:43:10;;;;;;;;;7.00;5.75;;;;;16.27;82.10;99944.19;5097445;27;45266;-73
2022/06/08 06:45:36;;;;;;;;;6.50;6.50;;;;;16.28;82.28;99947.72;5096670;27;45408;-72
2022/06/08 06:48:01;;;;;;;;;6.00;6.00;;;;;16.24;82.45;99946.25;5094619;27;45496;-73
2022/06/08 06:50:27;;;;;;;;;6.75;5.00;;;;;16.26;82.66;99944.31;5095974;27;45568;-71
2022/06/08 06:52:52;;;;;;;;;4.50;3.50;;;;;16.27;82.47;99946.00;5096331;27;45350;-74
2022/06/08 06:55:35;;;;;;;;;3.75;3.75;;;;;16.23;81.86;99944.53;5095144;27;45374;-74
2022/06/08 06:58:01;;;;;;;;;4.50;4.50;;;;;16.24;81.81;99948.91;5097696;27;45419;-72
2022/06/08 07:00:27;;;;;;;;;4.50;3.75;;;;;16.20;82.30;99946.47;5096668;27;45506;-73
2022/06/08 07:02:53;;;;;;;;;3.25;3.00;;;;;16.18;81.71;99951.03;5095343;27;45878;-76
2022/06/08 07:05:21;;;;;;;;;7.50;4.75;;;;;16.14;82.15;99952.22;5096608;27;45289;-76
2022/06/08 07:07:48;;;;;;;;;6.25;4.50;;;;;16.11;82.56;99946.28;5095825;27;45515;-74
2022/06/08 07:10:15;;;;;;;;;4.25;3.50;;;;;16.18;82.87;99951.03;5099213;27;46241;-75
2022/06/08 07:12:40;;;;;;;;;4.00;4.00;;;;;16.17;83.44;99953.78;5117389;27;45430;-74
2022/06/08 07:15:07;;;;;;;;;4.75;4.75;;;;;16.25;83.13;99962.03;5107955;27;45399;-70
2022/06/08 07:17:32;;;;;;;;;5.00;5.00;;;;;16.25;82.76;99954.06;5101916;27;45360;-76
2022/06/08 07:19:57;;;;;;;;;2.00;2.00;;;;;16.24;82.57;99956.84;5096842;27;45451;-74
2022/06/08 07:22:23;;;;;;;;;6.00;4.25;;;;;16.22;82.40;99959.59;5105481;27;45438;-76
2022/06/08 07:24:48;;;;;;;;;2.75;2.50;;;;;16.17;82.18;99946.69;5109900;27;45395;-77
2022/06/08 07:27:14;;;;;;;;;7.00;6.00;;;;;16.20;82.91;99954.44;5097322;27;45278;-77
2022/06/08 07:29:40;;;;;;;;;8.00;6.00;;;;;16.25;83.82;99958.53;5099155;27;45284;-78
2022/06/08 07:32:05;;;;;;;;;4.50;4.50;;;;;16.26;83.30;99954.94;5098229;27;45342;-75
2022/06/08 07:34:31;;;;;;;;;2.75;2.75;;;;;16.13;83.44;99931.09;5096954;27;45433;-79
2022/06/08 07:36:57;;;;;;;;;16.25;16.25;;;;;16.32;83.52;99957.97;5098402;27;45263;-74
2022/06/08 07:39:23;;;;;;;;;7.00;5.00;;;;;15.86;83.59;99881.75;5106908;27;46539;-80
2022/06/08 07:41:49;;;;;;;;;4.00;4.00;;;;;16.39;83.42;99961.03;5096542;27;45532;-77
2022/06/08 07:44:16;;;;;;;;;4.75;3.25;;;;;16.38;83.15;99967.28;5096690;27;45533;-76
2022/06/08 07:46:41;;;;;;;;;4.00;2.25;;;;;16.30;83.49;99949.25;5097055;27;45564;-76
2022/06/08 07:51:53;;;;;;;;;7.75;6.00;;;;;16.41;84.53;99951.13;5115912;27;45386;-77
2022/06/08 07:54:24;;;;;;;;;4.00;3.00;;;;;16.53;83.74;99954.69;5111156;27;45307;-78
2022/06/08 07:56:51;;;;;;;;;2.00;2.00;;;;;16.54;82.76;99950.22;5096526;27;45330;-71
2022/06/08 07:59:17;;;;;;;;;3.00;3.00;;;;;16.61;82.78;99964.72;5094633;27;45483;-70
2022/06/08 08:01:42;;;;;;;;;4.25;4.00;;;;;16.66;82.60;99951.94;5095008;27;45362;-73
2022/06/08 08:04:08;;;;;;;;;5.50;4.00;;;;;16.79;82.39;99957.16;5097267;27;45462;-77
2022/06/08 08:06:33;;;;;;;;;7.25;3.00;;;;;16.87;82.14;99953.91;5097916;27;45705;-76
2022/06/08 08:09:00;;;;;;;;;4.25;3.75;;;;;16.89;81.87;99951.97;5095988;27;45244;-79
2022/06/08 08:11:26;;;;;;;;;6.25;3.50;;;;;17.00;81.77;99960.03;5096150;27;45448;-78
2022/06/08 08:13:52;;;;;;;;;7.00;4.25;;;;;17.19;81.02;99954.09;5095846;27;45250;-76
2022/06/08 08:16:17;;;;;;;;;3.25;3.25;;;;;17.37;81.12;99946.50;5092815;27;45689;-81
2022/06/08 08:18:43;;;;;;;;;3.50;3.50;;;;;17.70;80.81;99946.59;5096260;27;46553;-76
2022/06/08 08:21:08;;;;;;;;;6.00;3.00;;;;;17.97;79.77;99940.00;5095948;27;45355;-78
2022/06/08 08:23:33;;;;;;;;;2.00;2.00;;;;;18.34;78.63;99939.66;5095941;27;45334;-76
2022/06/08 08:25:59;;;;;;;;;5.00;3.00;;;;;18.81;78.04;99935.78;5099018;27;45622;-79
2022/06/08 08:28:24;;;;;;;;;6.75;5.75;;;;;19.19;77.15;99936.16;5097563;27;46623;-69
2022/06/08 08:30:49;;;;;;;;;4.00;3.50;;;;;19.53;75.56;99928.69;5094886;27;45343;-67
2022/06/08 08:33:15;;;;;;;;;4.50;4.50;;;;;19.76;74.76;99936.50;5095273;27;45368;-68
2022/06/08 08:35:40;;;;;;;;;2.50;1.75;;;;;19.92;73.09;99930.63;5093822;27;45600;-68
2022/06/08 08:38:06;;;;;;;;;3.00;2.75;;;;;20.05;72.24;99926.84;5096025;27;46269;-68
2022/06/08 08:40:51;;;;;;;;;5.00;5.00;;;;;20.06;71.70;99924.06;5097385;27;45506;-76
2022/06/08 08:43:21;;;;;;;;;2.50;2.50;;;;;20.10;71.07;99928.13;5093999;27;45387;-78
2022/06/08 08:46:15;;;;;;;;;8.75;8.00;;;;;20.05;71.32;99941.06;5096655;27;45261;-75
2022/06/08 08:48:53;;;;;;;;;2.00;2.00;;;;;19.92;70.23;99941.31;5099707;27;45688;-77
2022/06/08 08:51:42;;;;;;;;;1.75;1.75;;;;;19.78;70.51;99949.69;5092338;27;45525;-72
2022/06/08 08:54:22;;;;;;;;;5.50;5.50;;;;;19.71;71.90;99946.75;5095762;27;45397;-78
2022/06/08 08:56:50;;;;;;;;;32.25;31.00;;;;;19.70;73.36;99948.56;5087416;27;45363;-73
2022/06/08 08:59:18;;;;;;;;;7.00;5.25;;;;;19.76;72.52;99959.66;5091942;27;46000;-71
2022/06/08 09:01:49;;;;;;;;;2.00;2.00;;;;;19.79;71.85;99959.38;5093204;27;45486;-73
2022/06/08 09:04:34;;;;;;;;;4.00;4.00;;;;;19.88;73.20;99953.22;5094251;27;45324;-78
2022/06/08 09:07:21;;;;;;;;;2.00;2.00;;;;;19.93;71.94;99958.19;5095172;27;45507;-79
2022/06/08 09:09:47;;;;;;;;;2.00;2.00;;;;;19.90;71.20;99963.81;5081201;27;46011;-79
2022/06/08 09:12:20;;;;;;;;;3.25;3.25;;;;;19.82;71.33;99959.97;5077007;28;45443;-78
2022/06/08 09:14:51;;;;;;;;;0.50;0.50;;;;;19.80;70.80;99969.94;5126031;27;45556;-73
2022/06/08 09:17:19;;;;;;;;;0.00;0.00;;;;;19.75;71.53;99947.28;5093914;27;45543;-74
2022/06/08 09:19:49;;;;;;;;;4.00;1.50;;;;;19.98;70.85;99959.44;5095404;27;47365;-75
2022/06/08 09:22:17;;;;;;;;;1.75;1.50;;;;;20.18;69.92;99969.31;5095256;27;45243;-74
2022/06/08 09:24:49;;;;;;;;;1.00;1.00;;;;;20.38;69.11;99962.16;5095281;27;45416;-75
2022/06/08 09:27:25;;;;;;;;;2.00;1.00;;;;;20.56;67.58;99975.63;5095281;27;45428;-75
2022/06/08 09:30:15;;;;;;;;;1.75;1.75;;;;;20.64;67.66;99964.25;5094547;27;45868;-75
2022/06/08 09:32:49;;;;;;;;;3.00;3.00;;;;;20.61;67.44;99961.88;5094164;27;45493;-74
2022/06/08 09:35:29;;;;;;;;;6.00;5.25;;;;;20.60;67.49;99963.69;5093500;27;45376;-74
2022/06/08 09:38:02;;;;;;;;;0.00;0.00;;;;;20.57;66.80;99962.16;5094856;27;45440;-75
2022/06/08 09:40:56;;;;;;;;;4.25;3.00;;;;;20.66;66.67;99964.97;5093404;27;45475;-74
2022/06/08 09:43:40;;;;;;;;;3.00;3.00;;;;;20.75;66.46;99965.94;5075212;27;45437;-75
2022/06/08 09:46:12;;;;;;;;;1.00;1.00;;;;;20.86;65.87;99963.13;5094660;27;45434;-74
2022/06/08 09:52:09;;;;;;;;;3.75;3.75;;;;;20.84;65.29;99946.41;5094485;27;45348;-74
2022/06/08 09:54:48;;;;;;;;;3.50;3.50;;;;;20.84;65.20;99955.25;5096058;27;45261;-73
2022/06/08 09:57:41;;;;;;;;;4.00;4.00;;;;;20.88;65.29;99958.50;5094727;27;45347;-75
2022/06/08 10:00:30;;;;;;;;;2.50;2.50;;;;;20.79;65.15;99932.63;5094247;27;45421;-75
2022/06/08 10:03:34;;;;;;;;;4.00;4.00;;;;;21.17;64.76;99955.72;5093960;27;45465;-75
2022/06/08 10:06:30;;;;;;;;;4.25;4.00;;;;;21.37;63.87;99952.13;5093623;27;45431;-74
2022/06/08 10:09:09;;;;;;;;;5.50;5.50;;;;;21.43;63.46;99947.03;5097447;27;45326;-75
2022/06/08 10:12:07;;;;;;;;;5.75;5.75;;;;;21.78;63.18;99941.97;5097498;27;45246;-77
2022/06/08 10:14:39;;;;;;;;;9.00;9.00;;;;;22.09;61.74;99938.06;5097379;27;46071;-75
2022/06/08 10:17:27;;;;;;;;;5.75;5.75;;;;;22.39;60.96;99933.34;5097536;27;45267;-77
2022/06/08 10:20:17;;;;;;;;;3.00;3.00;;;;;22.67;59.71;99931.41;5096608;27;45344;-76
2022/06/08 10:22:46;;;;;;;;;5.00;5.00;;;;;22.90;59.40;99921.00;5098174;27;45222;-76
2022/06/08 10:25:22;;;;;;;;;8.50;7.25;;;;;23.03;57.53;99914.34;5097144;27;45619;-76
2022/06/08 10:27:57;;;;;;;;;4.00;4.00;;;;;23.02;57.73;99915.34;5098037;27;45388;-76
2022/06/08 10:30:54;;;;;;;;;5.75;5.00;;;;;23.15;57.53;99907.72;5097636;27;45458;-76
2022/06/08 10:33:25;;;;;;;;;1.00;1.00;;;;;23.33;55.93;99933.69;5098070;27;45814;-73
2022/06/08 10:35:55;;;;;;;;;3.50;0.50;;;;;23.18;55.35;99949.50;5097499;27;45339;-75
2022/06/08 10:38:33;;;;;;;;;19.00;5.75;;;;;21.91;87.27;99972.88;5098458;27;45427;-74
2022/06/08 10:41:00;;;;;;;;;3.25;1.50;;;;;19.45;100.00;99971.19;5102737;27;45314;-81
2022/06/08 10:43:32;;;;;;;;;0.50;0.50;;;;;18.21;100.00;99958.47;5099695;27;45503;-79
2022/06/08 10:46:05;;;;;;;;;5.00;5.00;;;;;17.56;100.00;99968.97;5098521;27;45353;-78
2022/06/08 10:48:39;;;;;;;;;2.25;2.25;;;;;17.29;100.00;99966.66;5099288;27;45275;-78
2022/06/08 10:51:31;;;;;;;;;4.00;4.00;;;;;17.11;100.00;99956.50;5102760;27;45452;-79
2022/06/08 10:56:41;;;;;;;;;6.50;5.25;;;;;17.61;100.00;99950.84;5098110;27;45437;-80
2022/06/08 10:59:07;;;;;;;;;7.25;6.75;;;;;17.77;100.00;99953.13;5096741;27;45602;-78
2022/06/08 11:01:53;;;;;;;;;8.75;8.00;;;;;17.63;100.00;99956.88;5098047;27;45396;-78
2022/06/08 11:04:29;;;;;;;;;6.00;6.00;;;;;17.49;100.00;99960.63;5105122;27;45268;-80
2022/06/08 11:07:07;;;;;;;;;15.00;12.00;;;;;17.37;100.00;99965.13;5099262;27;46299;-81
2022/06/08 11:09:32;;;;;;;;;9.50;9.50;;;;;17.37;100.00;99969.56;5099177;27;45368;-79
2022/06/08 11:12:11;;;;;;;;;10.00;10.00;;;;;17.50;100.00;99962.34;5101605;27;45385;-78
2022/06/08 11:14:42;;;;;;;;;11.25;11.25;;;;;17.92;100.00;99964.31;5115261;27;28361;-80
2022/06/08 11:17:17;;;;;;;;;12.75;12.75;;;;;18.30;100.00;99969.34;5113374;27;28816;-80
2022/06/08 11:19:45;;;;;;;;;13.25;12.00;;;;;18.46;100.00;99974.22;5111556;27;44813;-82
2022/06/08 11:22:26;;;;;;;;;11.00;10.00;;;;;18.51;100.00;99966.69;5100214;27;421211;-82
2022/06/08 11:24:57;;;;;;;;;7.25;6.50;;;;;18.72;100.00;99957.91;5117647;27;40293;-80
2022/06/08 11:27:36;;;;;;;;;6.50;6.50;;;;;18.99;100.00;99962.69;5119704;27;38399;-78
2022/06/08 11:30:20;;;;;;;;;10.00;8.00;;;;;19.16;100.00;99965.75;5115738;27;45466;-80
2022/06/08 11:33:14;;;;;;;;;7.50;6.00;;;;;19.32;100.00;99952.78;5113030;27;45399;-76
2022/06/08 11:36:20;;;;;;;;;10.75;8.75;;;;;19.41;100.00;99959.13;5088758;27;45626;-80
2022/06/08 11:39:18;;;;;;;;;9.25;9.25;;;;;19.64;100.00;99954.44;5098797;27;47365;-82
2022/06/08 11:42:00;;;;;;;;;8.00;8.00;;;;;19.93;100.00;99953.69;5066662;27;45351;-79
2022/06/08 11:44:32;;;;;;;;;4.75;3.75;;;;;20.07;100.00;99951.59;5098579;27;45355;-79
2022/06/08 11:47:09;;;;;;;;;2.00;2.00;;;;;20.23;100.00;99949.25;5101325;27;45469;-80
2022/06/08 11:49:42;;;;;;;;;3.50;3.50;;;;;20.19;100.00;99957.66;5103575;27;47268;-80
2022/06/08 11:52:31;;;;;;;;;4.25;4.00;;;;;20.11;100.00;99956.53;5107201;27;45300;-77
2022/06/08 11:55:10;;;;;;;;;2.25;2.25;;;;;20.22;100.00;99950.22;5108229;27;45312;-81
2022/06/08 11:57:49;;;;;;;;;9.50;5.25;;;;;20.24;100.00;99955.41;5107643;27;45320;-79
2022/06/08 12:00:21;;;;;;;;;6.00;3.00;;;;;20.29;100.00;99963.84;5105610;27;46434;-80
2022/06/08 12:02:52;;;;;;;;;4.75;4.75;;;;;20.38;100.00;99951.47;5100751;27;44729;-79